Hametown, Pennsylvania
Current Conditions -  °F | °C
As of 6:53 AM on Friday 19 Dec 2014 (Local Time) from KTHV Reporting Station
Overcast Overcast  
Wind Chill: 27°   Ceiling: 2800
Heat Index: 34°   Visibility: 10mi
Dew Point: 24°   Wind: 9mph
Humidity: 67%   Direction: 290°WNW
Pressure: 30.08"   Gusts: NA
Location:  39.7757°N, 76.7605°W
Report Text: KTHV 191153Z AUTO 29008KT 10SM OVC028 01/M04 A3008 RMK AO2 SLP194 T00111044 10011 20006 53004
Loading
Personal Weather Stations






























Interactive Weather Map New forecast layout! Learn more

10-Day Weather Forecast

Advertisements
Track Severe Weather on mobile